Hovedside
METAR-TAF:

METAR-TAF

Lufthavner :

Bahrain, Bahrain

breddegrad: 26-16N, lengdegrad: 050-39E, høyde over havet: 2 m

Gjeldene værobservasjon

Denne rapporten ble laget for 12 minutter siden, klokken 21:30 UTC
Vind 3 kt fra Sør-sørøst
Temperatur 17°C
Luftfuktighet 72%
Trykk 1016 hPa
Sikt 10 km eller mer
ingen skyer under 1500 m og ingen bygeskyer

METAR: OBBI 182130Z 16003KT CAVOK 17/12 Q1016 NOSIG

Tid: 00:42 (21:42 UTC)

Varsel

Denne rapporten ble laget for 4 timer og 42 minutter siden, klokken 17:00 UTC
Varsel gyldig fra 18. klokken 18 UTC til 20. klokken 00 UTC
Vind 7 kt fra Øst
Sikt 10 km eller mer
ingen skyer under 1500 m og ingen bygeskyer
Sannsynlighet 30% :
Midlertidig
fra 19. klokken 00 UTC til 19. klokken 04 UTC
Sikt: 4000 m
dis
Blir
fra 19. klokken 05 UTC til 19. klokken 07 UTC
Vind 12 kt fra Sør-sørøst

TAF: OBBI 181700Z 1818/2000 10007KT CAVOK PROB30 TEMPO 1900/1904 4000 HZ BECMG 1905/1907 16012KT

Værobservasjoner og værvarsel for over 4000 flyplasser (METAR- og TAF-rapporter).

Tilgjengelige stasjoner er representert av de røde og gule prikkene på kartet.

Hold musepekeren over prikken for å se navnet på stasjonen.

Klikk så for å se værobservasjoner og -varsler.

For å forandre kartet kan du klikke på den grønne knappen med svart kryss for å zoome inn, på den grønne knappen med strek for å zoome ut, eller på de grønne pilene for å se tilstøtende kart.


METAR-TAF: